Aérodrome :
LOGIN :

S'inscrire | Disclaimer

   EN    FR    IT 

 










Légende :    VFR   VFR Marginal   IFR   IFR Intensif   IFR Très Intensif
Visi : 
Plafond : 
>= 8 km
>= 3000ft
5 à 8 km
1000 à 3000 ft
1500m à 5 km
500 à 1000 ft
800 à 1500m
200 à 500 ft
< 800m
< 200 ft
Symboles :   Orages  Brouillard  Fortes neiges  Fortes précipitations  Vent > 20 kt
SIGMETs :   Divers  Orages  Givrage  Turbulence  Onde Orograph.  Cendres Volcan.







- Altitude de l'aérodrome : 80 ft
- Code IATA : LPL
- Voir les cartes d'approche


EGGP - Liverpool John Lennon

DERNIER METAR :
  • 230720Z 23017KT CAVOK 06/04 Q0988

METARs EXPIRÉS :
  • 230620Z 21014KT 9999 SCT010 BKN018 06/04 Q0987
  • 230550Z 22016KT 9999 SCT010 BKN018 06/04 Q0987
  • 230520Z 24016KT 9999 SCT010 BKN018 06/04 Q0986
  • 230450Z 26021KT 9999 SCT010 BKN018 06/03 Q0985
  • 230420Z 27021KT 9999 SCT010 BKN018 06/04 Q0985

TAF AMD TAF EGGP
Valide du 23 à 06h jusqu'au 24 à 06h UTC


230631Z 2306/2406 25017KT 9999 BKN020
BECMG 2308/2311 27020G35KT
TEMPO 2308/2320 7000 SHRA
PROB30
TEMPO 2311/2318 4000 +SHRA
BECMG 2315/2318 25014KT
PROB30
TEMPO 2320/2324 7000 SHRA
ATIS : +44 151 907 2000 (option 5 or ext 5150)
Météo : +44 871 750 5150
Pas de NOTAMs connus pour ce terrain.
1 SIGMET publié pour la FIR London (EGTT) :
 
Turbulence forte
EGTT SIGMET 02 VALID 230600/231000 EGRR
EGTT LONDON FIR SEV TURB FCST E OF LINE N5000 W00015 - N5500 E00258 SFC/FL060 MOV E 20KT WKN=



MET'MAP, la Météo Aéronautique d'un coup d'oeil ! - Copyright ORBIFLY Décembre 2007 - Disclaimer

ORBIFLY MET'MAP TEAM :

Programmation & Développement : Alexandra Zaïnal
Conception & Développement : Baudouin d'Aumeries
Co-Programmation & Développement : Marc-Olivier Méhu
Soutien technique & logistique : Manuel Goepfert

Contact : metmap@orbifly.com




SOURCES & CREDITS :

   NOAA